createdAt,value
2023-01-27T00:02:33.824Z,21.20
2023-01-27T00:07:37.040Z,19.60
2023-01-27T00:13:07.116Z,19.30
2023-01-27T00:18:11.557Z,17.10
2023-01-27T00:23:34.963Z,17.40
2023-01-27T00:28:39.386Z,18.10
2023-01-27T00:33:45.886Z,18.20
2023-01-27T00:38:48.148Z,18.90
2023-01-27T00:43:53.291Z,19.00
2023-01-27T00:48:58.228Z,20.50
2023-01-27T00:54:03.068Z,19.00
2023-01-27T00:59:05.446Z,19.20
2023-01-27T01:04:08.100Z,19.30
2023-01-27T01:09:11.115Z,17.60
2023-01-27T01:14:13.831Z,18.60
2023-01-27T01:19:16.539Z,17.10
2023-01-27T01:24:19.757Z,18.20
2023-01-27T01:29:22.181Z,19.30
2023-01-27T01:34:24.633Z,19.20
2023-01-27T01:39:32.431Z,20.20
2023-01-27T01:44:34.656Z,20.10
2023-01-27T01:49:40.720Z,18.10
2023-01-27T01:54:56.885Z,20.30
2023-01-27T02:00:08.017Z,21.10
2023-01-27T02:05:40.677Z,22.00
2023-01-27T02:10:49.786Z,21.80
2023-01-27T02:15:56.102Z,24.30
2023-01-27T02:20:58.827Z,23.50
2023-01-27T02:26:17.312Z,23.60
2023-01-27T02:31:39.919Z,22.90
2023-01-27T02:36:56.507Z,23.30
2023-01-27T02:42:19.602Z,23.00
2023-01-27T02:47:31.045Z,23.50
2023-01-27T02:52:34.027Z,23.40
2023-01-27T02:57:36.470Z,22.60
2023-01-27T03:02:54.286Z,27.20
2023-01-27T03:07:57.023Z,28.10
2023-01-27T03:12:59.748Z,28.60
2023-01-27T03:18:11.604Z,28.30
2023-01-27T03:23:16.881Z,29.30
2023-01-27T03:28:22.773Z,32.40
2023-01-27T03:33:37.151Z,29.80
2023-01-27T03:39:14.173Z,32.80
2023-01-27T03:44:35.011Z,35.20
2023-01-27T03:49:39.384Z,35.30
2023-01-27T03:54:41.547Z,36.30
2023-01-27T03:59:48.048Z,35.20
2023-01-27T04:05:08.780Z,38.40
2023-01-27T04:10:11.862Z,44.50
2023-01-27T04:15:14.469Z,40.30
2023-01-27T04:20:38.066Z,37.70
2023-01-27T04:25:40.514Z,37.30
2023-01-27T04:30:44.060Z,34.30
2023-01-27T04:35:46.610Z,31.40
2023-01-27T04:40:48.826Z,35.40
2023-01-27T04:45:51.202Z,36.90
2023-01-27T04:50:53.910Z,35.50
2023-01-27T04:56:05.984Z,36.50
2023-01-27T05:01:07.980Z,33.70
2023-01-27T05:06:17.242Z,30.40
2023-01-27T05:11:20.200Z,32.30
2023-01-27T05:16:25.356Z,31.20
2023-01-27T05:21:28.495Z,28.60
2023-01-27T05:26:31.238Z,30.90
2023-01-27T05:31:33.527Z,29.30
2023-01-27T05:36:36.122Z,28.10
2023-01-27T05:41:38.252Z,20.40
2023-01-27T05:46:42.462Z,28.80
2023-01-27T05:51:48.303Z,26.50
2023-01-27T05:56:50.328Z,29.40
2023-01-27T06:01:52.742Z,28.70
2023-01-27T06:06:55.424Z,27.40
2023-01-27T06:11:57.707Z,28.50
2023-01-27T06:17:01.106Z,25.50
2023-01-27T06:22:12.464Z,24.90
2023-01-27T06:27:15.325Z,23.10
2023-01-27T06:32:17.464Z,23.80
2023-01-27T06:37:22.586Z,24.40
2023-01-27T06:42:25.448Z,22.80
2023-01-27T06:47:27.748Z,24.00
2023-01-27T06:52:30.435Z,22.90
2023-01-27T06:57:33.019Z,22.90
2023-01-27T07:02:38.222Z,24.70
2023-01-27T07:07:43.481Z,23.40
2023-01-27T07:12:45.459Z,24.60
2023-01-27T07:17:47.963Z,23.90
2023-01-27T07:22:53.416Z,26.50
2023-01-27T07:27:58.431Z,24.10
2023-01-27T07:33:10.784Z,22.00
2023-01-27T07:38:15.664Z,23.00
2023-01-27T07:43:18.166Z,21.80
2023-01-27T07:48:21.742Z,22.80
2023-01-27T07:53:23.840Z,20.10
2023-01-27T07:58:26.971Z,21.30
2023-01-27T08:03:29.396Z,17.60
2023-01-27T08:08:32.752Z,19.00
2023-01-27T08:13:36.193Z,20.30
2023-01-27T08:18:40.320Z,19.00
2023-01-27T08:23:42.888Z,20.20
2023-01-27T08:28:45.080Z,17.60
2023-01-27T08:33:53.285Z,18.90
2023-01-27T08:39:06.687Z,19.60
2023-01-27T08:44:12.184Z,18.90
2023-01-27T08:49:15.172Z,18.30
2023-01-27T08:54:17.812Z,17.50
2023-01-27T08:59:20.439Z,17.40
2023-01-27T09:04:23.196Z,18.80
2023-01-27T09:09:25.133Z,19.90
2023-01-27T09:14:27.619Z,22.00
2023-01-27T09:19:32.883Z,21.70
2023-01-27T09:24:35.330Z,22.70
2023-01-27T09:29:37.306Z,23.00
2023-01-27T09:34:39.775Z,19.30
2023-01-27T09:39:56.231Z,24.40
2023-01-27T09:45:38.705Z,24.70
2023-01-27T09:50:53.408Z,22.30
2023-01-27T09:56:20.875Z,22.00
2023-01-27T10:01:46.917Z,23.00
2023-01-27T10:07:07.410Z,25.60
2023-01-27T10:12:24.369Z,24.10
2023-01-27T10:18:15.598Z,19.20
2023-01-27T10:23:57.834Z,23.30
2023-01-27T10:29:23.283Z,21.50
2023-01-27T10:35:02.860Z,25.20
2023-01-27T10:40:16.316Z,28.50
2023-01-27T10:45:40.436Z,26.70
2023-01-27T10:51:02.026Z,28.60
2023-01-27T10:56:25.814Z,26.80
2023-01-27T11:01:38.672Z,26.80
2023-01-27T11:06:43.949Z,28.20
2023-01-27T11:11:50.139Z,27.40
2023-01-27T11:17:02.936Z,27.90
2023-01-27T11:22:20.055Z,30.00
2023-01-27T11:28:13.761Z,28.40
2023-01-27T11:33:51.761Z,31.10
2023-01-27T11:39:07.398Z,30.50
2023-01-27T11:44:23.257Z,30.30
2023-01-27T11:49:32.614Z,32.20
2023-01-27T11:54:42.157Z,29.80
2023-01-27T11:59:46.815Z,27.20
2023-01-27T12:05:04.076Z,27.20
2023-01-27T12:10:36.244Z,29.30
2023-01-27T12:15:58.973Z,28.90
2023-01-27T12:21:08.517Z,25.50
2023-01-27T12:26:12.233Z,26.20
2023-01-27T12:31:33.553Z,25.30
2023-01-27T12:36:44.495Z,25.70
2023-01-27T12:41:47.132Z,26.10
2023-01-27T12:47:35.593Z,23.10
2023-01-27T12:52:38.063Z,21.50
2023-01-27T12:57:43.735Z,19.40
2023-01-27T13:02:47.229Z,21.10
2023-01-27T13:07:53.192Z,24.10
2023-01-27T13:13:05.474Z,23.10
2023-01-27T13:18:23.796Z,22.00
2023-01-27T13:23:35.134Z,17.30
2023-01-27T13:29:13.347Z,19.90
2023-01-27T13:34:29.831Z,19.70
2023-01-27T13:39:51.926Z,19.80
2023-01-27T13:45:01.403Z,18.90
2023-01-27T13:50:16.682Z,18.60
2023-01-27T13:55:47.958Z,18.90
2023-01-27T14:01:25.483Z,16.60
2023-01-27T14:06:28.014Z,16.90
2023-01-27T14:11:47.573Z,14.50
2023-01-27T14:17:02.838Z,17.00
2023-01-27T14:22:26.033Z,15.20
2023-01-27T14:27:40.189Z,15.80
2023-01-27T14:33:03.033Z,15.10
2023-01-27T14:38:33.037Z,15.20
2023-01-27T14:43:51.983Z,14.30
2023-01-27T14:49:32.687Z,13.10
2023-01-27T14:54:58.926Z,14.10
2023-01-27T15:00:12.817Z,14.90
2023-01-27T15:06:13.722Z,10.60
2023-01-27T15:11:51.711Z,13.60
2023-01-27T15:17:12.769Z,12.50
2023-01-27T15:22:42.992Z,12.30
2023-01-27T15:27:47.388Z,12.00
2023-01-27T15:32:49.625Z,13.60
2023-01-27T15:38:17.980Z,11.80
2023-01-27T15:43:25.532Z,8.80
2023-01-27T15:48:34.358Z,12.70
2023-01-27T15:53:42.352Z,12.10
2023-01-27T15:58:58.308Z,11.70
2023-01-27T16:04:27.665Z,14.20
2023-01-27T16:09:51.998Z,16.50
2023-01-27T16:15:22.926Z,16.50
2023-01-27T16:20:37.886Z,15.90
2023-01-27T16:25:46.565Z,15.70
2023-01-27T16:31:03.511Z,14.40
2023-01-27T16:36:27.245Z,13.80
2023-01-27T16:41:36.217Z,13.00
2023-01-27T16:46:53.376Z,13.90
2023-01-27T16:52:01.673Z,11.10
2023-01-27T16:57:06.649Z,12.10
2023-01-27T17:02:20.378Z,13.80
2023-01-27T17:07:23.411Z,12.50
2023-01-27T17:12:34.731Z,16.40
2023-01-27T17:17:39.193Z,12.20
2023-01-27T17:22:44.479Z,15.10
2023-01-27T17:27:50.252Z,14.00
2023-01-27T17:33:00.639Z,14.90
2023-01-27T17:38:24.315Z,16.00
2023-01-27T17:43:39.347Z,14.70
2023-01-27T17:48:52.582Z,16.40
2023-01-27T17:53:56.778Z,10.70
2023-01-27T17:59:11.877Z,12.10
2023-01-27T18:04:15.589Z,11.60
2023-01-27T18:09:28.510Z,12.70
2023-01-27T18:14:37.089Z,13.40
2023-01-27T18:19:51.276Z,16.10
2023-01-27T18:24:57.474Z,12.90
2023-01-27T18:30:28.485Z,15.80
2023-01-27T18:35:34.984Z,18.10
2023-01-27T18:40:45.907Z,20.50
2023-01-27T18:45:50.608Z,25.70
2023-01-27T18:50:53.205Z,26.60
2023-01-27T18:55:55.723Z,25.30
2023-01-27T19:01:01.022Z,22.10
2023-01-27T19:06:03.919Z,18.60
2023-01-27T19:11:14.248Z,18.40
2023-01-27T19:16:19.695Z,15.80
2023-01-27T19:21:22.719Z,17.50
2023-01-27T19:26:27.551Z,16.50
2023-01-27T19:31:30.238Z,16.70
2023-01-27T19:36:42.447Z,17.20
2023-01-27T19:41:48.712Z,16.50
2023-01-27T19:46:59.971Z,14.40
2023-01-27T19:52:05.799Z,14.40
2023-01-27T19:57:15.908Z,13.30
2023-01-27T20:02:21.331Z,12.00
2023-01-27T20:07:26.093Z,12.50
2023-01-27T20:12:29.103Z,13.20
2023-01-27T20:17:32.785Z,12.50
2023-01-27T20:22:36.846Z,13.20
2023-01-27T20:27:39.519Z,13.90
2023-01-27T20:32:42.419Z,14.20
2023-01-27T20:37:48.656Z,14.70
2023-01-27T20:42:52.176Z,15.90
2023-01-27T20:47:54.390Z,16.10
2023-01-27T20:52:57.296Z,15.00
2023-01-27T20:58:02.444Z,15.80
2023-01-27T21:03:05.110Z,15.30
2023-01-27T21:08:07.353Z,16.80
2023-01-27T21:13:12.172Z,16.60
2023-01-27T21:23:28.075Z,16.60
2023-01-27T21:28:31.948Z,16.10
2023-01-27T21:33:36.279Z,17.00
2023-01-27T21:38:40.058Z,17.60
2023-01-27T21:44:01.204Z,19.40
2023-01-27T21:49:04.025Z,18.20
2023-01-27T21:54:10.484Z,18.30
2023-01-27T21:59:13.043Z,16.10
2023-01-27T22:04:18.800Z,15.40
2023-01-27T22:09:24.049Z,14.10
2023-01-27T22:14:31.648Z,18.40
2023-01-27T22:19:39.212Z,21.50
2023-01-27T22:24:42.237Z,21.00
2023-01-27T22:29:44.882Z,20.60
2023-01-27T22:34:50.815Z,19.20
2023-01-27T22:39:55.875Z,17.60
2023-01-27T22:45:01.811Z,18.20
2023-01-27T22:50:08.802Z,18.00
2023-01-27T22:55:13.228Z,23.40
2023-01-27T23:00:21.004Z,23.30
2023-01-27T23:05:26.700Z,25.40
2023-01-27T23:10:29.264Z,25.50
2023-01-27T23:15:31.586Z,25.20
2023-01-27T23:20:34.951Z,22.30
2023-01-27T23:25:45.175Z,20.20
2023-01-27T23:30:53.848Z,23.80
2023-01-27T23:35:57.620Z,23.20
2023-01-27T23:41:04.756Z,24.30
2023-01-27T23:46:11.457Z,24.50
2023-01-27T23:51:20.113Z,23.30
2023-01-27T23:56:22.694Z,23.30
